createdAt,value
2018-10-03T00:01:30.928Z,9.40
2018-10-03T00:04:02.295Z,9.30
2018-10-03T00:06:33.268Z,9.40
2018-10-03T00:09:04.692Z,9.40
2018-10-03T00:11:35.829Z,9.40
2018-10-03T00:14:07.420Z,9.40
2018-10-03T00:16:38.628Z,9.40
2018-10-03T00:19:09.738Z,9.40
2018-10-03T00:21:40.763Z,9.40
2018-10-03T00:24:11.829Z,9.40
2018-10-03T00:26:43.115Z,9.40
2018-10-03T00:29:14.084Z,9.40
2018-10-03T00:31:45.188Z,9.40
2018-10-03T00:34:16.567Z,9.40
2018-10-03T00:36:47.592Z,9.40
2018-10-03T00:39:18.567Z,9.40
2018-10-03T00:41:49.862Z,9.40
2018-10-03T00:44:20.900Z,9.40
2018-10-03T00:46:52.664Z,9.40
2018-10-03T00:49:24.186Z,9.40
2018-10-03T00:51:55.500Z,9.40
2018-10-03T00:54:26.547Z,9.30
2018-10-03T00:56:57.838Z,9.40
2018-10-03T00:59:29.019Z,9.40
2018-10-03T01:02:00.288Z,9.30
2018-10-03T01:04:31.809Z,9.30
2018-10-03T01:07:02.975Z,9.30
2018-10-03T01:09:34.076Z,9.30
2018-10-03T01:12:05.204Z,9.30
2018-10-03T01:14:36.420Z,9.30
2018-10-03T01:17:07.505Z,9.30
2018-10-03T01:19:38.675Z,9.30
2018-10-03T01:22:09.911Z,9.30
2018-10-03T01:24:41.156Z,9.30
2018-10-03T01:27:13.450Z,9.30
2018-10-03T01:29:44.453Z,9.30
2018-10-03T01:32:17.184Z,9.30
2018-10-03T01:37:53.660Z,9.30
2018-10-03T01:40:29.663Z,9.30
2018-10-03T01:43:00.877Z,9.30
2018-10-03T01:45:38.828Z,9.30
2018-10-03T01:48:13.294Z,9.30
2018-10-03T01:50:46.789Z,9.40
2018-10-03T01:53:19.054Z,9.30
2018-10-03T01:58:18.045Z,9.30
2018-10-03T02:00:49.816Z,9.30
2018-10-03T02:03:21.207Z,9.30
2018-10-03T02:08:18.022Z,9.30
2018-10-03T02:10:49.199Z,9.30
2018-10-03T02:13:20.263Z,9.40
2018-10-03T02:18:17.066Z,9.40
2018-10-03T02:20:48.331Z,9.40
2018-10-03T02:23:19.576Z,9.40
2018-10-03T02:28:16.606Z,9.40
2018-10-03T02:30:47.765Z,9.40
2018-10-03T02:33:19.099Z,9.40
2018-10-03T02:35:50.762Z,9.40
2018-10-03T02:38:22.316Z,9.40
2018-10-03T02:40:53.488Z,9.40
2018-10-03T02:43:24.620Z,9.40
2018-10-03T02:48:21.591Z,9.40
2018-10-03T02:50:52.815Z,9.40
2018-10-03T02:53:25.948Z,9.40
2018-10-03T02:55:57.336Z,9.40
2018-10-03T02:58:29.715Z,9.40
2018-10-03T03:01:00.763Z,9.40
2018-10-03T03:03:31.805Z,9.30
2018-10-03T03:06:02.921Z,9.40
2018-10-03T03:08:33.990Z,9.30
2018-10-03T03:11:05.703Z,9.40
2018-10-03T03:13:37.484Z,9.40
2018-10-03T03:16:08.551Z,9.40
2018-10-03T03:18:39.779Z,9.40
2018-10-03T03:21:11.020Z,9.30
2018-10-03T03:23:42.247Z,9.40
2018-10-03T03:26:13.420Z,9.40
2018-10-03T03:28:44.590Z,9.40
2018-10-03T03:31:15.967Z,9.40
2018-10-03T03:33:47.461Z,9.40
2018-10-03T03:36:18.651Z,9.30
2018-10-03T03:38:49.929Z,9.40
2018-10-03T03:41:21.169Z,9.40
2018-10-03T03:43:52.445Z,9.40
2018-10-03T03:46:23.571Z,9.40
2018-10-03T03:48:54.625Z,9.40
2018-10-03T03:51:25.704Z,9.40
2018-10-03T03:53:56.792Z,9.30
2018-10-03T03:56:27.956Z,9.40
2018-10-03T03:58:59.181Z,9.40
2018-10-03T04:01:30.286Z,9.40
2018-10-03T04:04:01.311Z,9.40
2018-10-03T04:06:32.376Z,9.30
2018-10-03T04:11:50.763Z,9.40
2018-10-03T04:14:21.767Z,9.30
2018-10-03T04:16:52.820Z,9.40
2018-10-03T04:19:24.071Z,9.40
2018-10-03T04:21:55.127Z,9.40
2018-10-03T04:24:26.138Z,9.40
2018-10-03T04:26:57.194Z,9.40
2018-10-03T04:29:28.412Z,9.40
2018-10-03T04:31:59.567Z,9.40
2018-10-03T04:34:30.666Z,9.30
2018-10-03T04:39:30.067Z,9.30
2018-10-03T04:42:01.193Z,9.30
2018-10-03T04:44:32.418Z,9.40
2018-10-03T04:47:03.619Z,9.40
2018-10-03T04:49:34.899Z,9.30
2018-10-03T04:52:06.214Z,9.30
2018-10-03T04:54:37.510Z,9.30
2018-10-03T04:57:08.888Z,9.30
2018-10-03T04:59:39.967Z,9.30
2018-10-03T05:02:11.044Z,9.30
2018-10-03T05:04:42.314Z,9.30
2018-10-03T05:07:13.603Z,9.30
2018-10-03T05:09:44.658Z,9.20
2018-10-03T05:12:15.846Z,9.20
2018-10-03T05:14:46.968Z,9.20
2018-10-03T05:17:18.231Z,9.30
2018-10-03T05:19:49.291Z,9.30
2018-10-03T05:22:20.584Z,9.30
2018-10-03T05:24:51.867Z,9.30
2018-10-03T05:27:23.003Z,9.30
2018-10-03T05:29:54.051Z,9.30
2018-10-03T05:32:25.215Z,9.30
2018-10-03T05:34:56.299Z,9.30
2018-10-03T05:37:27.362Z,9.30
2018-10-03T05:39:58.453Z,9.30
2018-10-03T05:42:29.587Z,9.30
2018-10-03T05:45:00.932Z,9.30
2018-10-03T05:47:32.236Z,9.30
2018-10-03T05:50:03.524Z,9.30
2018-10-03T05:52:34.663Z,9.30
2018-10-03T05:55:05.784Z,9.30
2018-10-03T05:57:36.881Z,9.30
2018-10-03T06:00:07.959Z,9.30
2018-10-03T06:02:39.297Z,9.30
2018-10-03T06:05:10.391Z,9.30
2018-10-03T06:07:41.641Z,9.30
2018-10-03T06:10:12.723Z,9.30
2018-10-03T06:12:43.748Z,9.30
2018-10-03T06:15:14.831Z,9.30
2018-10-03T06:17:45.999Z,9.30
2018-10-03T06:20:16.993Z,9.30
2018-10-03T06:22:48.075Z,9.30
2018-10-03T06:25:19.183Z,9.30
2018-10-03T06:27:50.458Z,9.30
2018-10-03T06:30:21.591Z,9.30
2018-10-03T06:32:53.015Z,9.30
2018-10-03T06:35:24.184Z,9.30
2018-10-03T06:40:22.175Z,9.30
2018-10-03T06:42:53.376Z,9.30
2018-10-03T06:45:24.706Z,9.30
2018-10-03T06:47:55.783Z,9.30
2018-10-03T06:50:27.164Z,9.30
2018-10-03T06:52:58.172Z,9.20
2018-10-03T06:55:29.179Z,9.20
2018-10-03T06:58:00.195Z,9.20
2018-10-03T07:00:31.412Z,9.10
2018-10-03T07:03:02.379Z,9.10
2018-10-03T07:05:33.467Z,9.10
2018-10-03T07:08:04.474Z,9.10
2018-10-03T07:10:35.548Z,9.00
2018-10-03T07:13:06.700Z,9.10
2018-10-03T07:15:37.868Z,9.00
2018-10-03T07:18:08.989Z,9.00
2018-10-03T07:20:40.120Z,9.00
2018-10-03T07:23:11.206Z,8.90
2018-10-03T07:25:42.424Z,8.90
2018-10-03T07:28:13.435Z,8.80
2018-10-03T07:30:44.555Z,8.70
2018-10-03T07:33:15.639Z,8.60
2018-10-03T07:35:46.777Z,8.60
2018-10-03T07:38:17.980Z,8.50
2018-10-03T07:40:49.132Z,8.50
2018-10-03T07:43:20.211Z,8.50
2018-10-03T07:45:51.191Z,8.40
2018-10-03T07:48:22.279Z,8.30
2018-10-03T07:50:53.537Z,8.30
2018-10-03T07:53:24.717Z,8.40
2018-10-03T07:55:56.373Z,8.40
2018-10-03T07:58:27.527Z,8.40
2018-10-03T08:00:58.901Z,8.50
2018-10-03T08:03:30.099Z,8.50
2018-10-03T08:06:01.105Z,8.60
2018-10-03T08:08:32.151Z,8.60
2018-10-03T08:11:03.307Z,8.70
2018-10-03T08:13:34.376Z,8.70
2018-10-03T08:16:05.399Z,8.70
2018-10-03T08:18:36.408Z,8.70
2018-10-03T08:21:07.478Z,8.70
2018-10-03T08:23:38.704Z,8.70
2018-10-03T08:26:10.036Z,8.60
2018-10-03T08:28:41.216Z,8.60
2018-10-03T08:31:12.423Z,8.70
2018-10-03T08:33:43.611Z,8.70
2018-10-03T08:36:14.832Z,8.70
2018-10-03T08:38:46.067Z,8.70
2018-10-03T08:41:17.243Z,8.70
2018-10-03T08:43:48.415Z,8.80
2018-10-03T08:46:19.533Z,8.70
2018-10-03T08:48:50.642Z,8.80
2018-10-03T08:51:21.799Z,8.70
2018-10-03T08:53:52.843Z,8.80
2018-10-03T08:56:23.887Z,8.80
2018-10-03T08:58:55.048Z,8.70
2018-10-03T09:01:26.372Z,8.80
2018-10-03T09:03:57.691Z,8.80
2018-10-03T09:06:29.036Z,8.80
2018-10-03T09:09:00.543Z,8.80
2018-10-03T09:11:32.002Z,8.80
2018-10-03T09:14:03.272Z,8.80
2018-10-03T09:16:34.470Z,8.80
2018-10-03T09:19:05.751Z,8.90
2018-10-03T09:21:37.020Z,8.90
2018-10-03T09:24:08.156Z,8.90
2018-10-03T09:26:39.245Z,8.90
2018-10-03T09:29:10.485Z,8.90
2018-10-03T09:31:41.823Z,8.90
2018-10-03T09:34:12.942Z,8.90
2018-10-03T09:36:44.120Z,8.90
2018-10-03T09:39:15.199Z,8.90
2018-10-03T09:41:46.431Z,8.90
2018-10-03T09:44:17.743Z,8.90
2018-10-03T09:46:48.806Z,8.90
2018-10-03T09:49:19.791Z,8.90
2018-10-03T09:51:50.906Z,8.90
2018-10-03T09:54:22.054Z,8.90
2018-10-03T09:56:53.239Z,8.90
2018-10-03T09:59:24.403Z,8.90
2018-10-03T10:01:55.622Z,9.00
2018-10-03T10:04:26.831Z,8.90
2018-10-03T10:06:57.915Z,9.00
2018-10-03T10:09:28.936Z,8.90
2018-10-03T10:11:59.999Z,9.00
2018-10-03T10:14:31.123Z,9.00
2018-10-03T10:17:02.336Z,9.00
2018-10-03T10:19:33.578Z,9.00
2018-10-03T10:22:04.779Z,9.00
2018-10-03T10:24:36.008Z,9.00
2018-10-03T10:27:07.298Z,9.00
2018-10-03T10:29:38.363Z,9.00
2018-10-03T10:32:09.607Z,9.00
2018-10-03T10:34:40.626Z,9.00
2018-10-03T10:37:11.648Z,9.00
2018-10-03T10:39:42.715Z,9.00
2018-10-03T10:42:13.724Z,9.00
2018-10-03T10:44:44.755Z,9.00
2018-10-03T10:47:15.738Z,9.00
2018-10-03T10:49:46.724Z,9.10
2018-10-03T10:52:17.682Z,9.00
2018-10-03T10:54:48.763Z,9.10
2018-10-03T10:57:19.788Z,9.10
2018-10-03T10:59:50.908Z,9.10
2018-10-03T11:02:22.016Z,9.10
2018-10-03T11:04:53.292Z,9.10
2018-10-03T11:07:24.570Z,9.10
2018-10-03T11:09:55.575Z,9.10
2018-10-03T11:12:26.686Z,9.20
2018-10-03T11:14:57.854Z,9.20
2018-10-03T11:17:28.959Z,9.20
2018-10-03T11:20:00.185Z,9.20
2018-10-03T11:22:31.295Z,9.20
2018-10-03T11:25:02.463Z,9.30
2018-10-03T11:27:33.667Z,9.30
2018-10-03T11:30:05.011Z,9.30
2018-10-03T11:32:36.320Z,9.40
2018-10-03T11:35:07.563Z,9.40
2018-10-03T11:37:38.711Z,9.40
2018-10-03T11:40:10.485Z,9.40
2018-10-03T11:42:41.683Z,9.50
2018-10-03T11:45:12.928Z,9.50
2018-10-03T11:47:44.227Z,9.60
2018-10-03T11:50:15.426Z,9.60
2018-10-03T11:52:46.566Z,9.70
2018-10-03T11:55:17.723Z,9.70
2018-10-03T11:57:48.808Z,9.70
2018-10-03T12:00:19.907Z,9.80
2018-10-03T12:02:51.035Z,9.90
2018-10-03T12:05:22.263Z,9.90
2018-10-03T12:07:53.399Z,10.00
2018-10-03T12:10:24.399Z,10.00
2018-10-03T12:12:55.593Z,10.00
2018-10-03T12:15:26.795Z,10.00
2018-10-03T12:17:57.929Z,10.00
2018-10-03T12:20:29.111Z,10.00
2018-10-03T12:23:00.132Z,10.10
2018-10-03T12:25:31.312Z,10.10
2018-10-03T12:28:02.332Z,10.20
2018-10-03T12:30:33.316Z,10.20
2018-10-03T12:33:04.320Z,10.30
2018-10-03T12:35:37.056Z,10.30
2018-10-03T12:38:08.372Z,10.40
2018-10-03T12:40:39.528Z,10.50
2018-10-03T12:43:10.685Z,10.50
2018-10-03T12:45:41.794Z,10.50
2018-10-03T12:48:13.136Z,10.50
2018-10-03T12:50:50.853Z,10.50
2018-10-03T12:56:24.360Z,10.70
2018-10-03T12:58:55.590Z,10.80
2018-10-03T13:01:26.649Z,10.80
2018-10-03T13:04:00.379Z,10.90
2018-10-03T13:06:31.435Z,11.00
2018-10-03T13:09:02.662Z,11.00
2018-10-03T13:11:33.828Z,11.00
2018-10-03T13:14:04.891Z,11.00
2018-10-03T13:16:36.464Z,11.00
2018-10-03T13:19:09.035Z,11.00
2018-10-03T13:21:40.551Z,11.00
2018-10-03T13:24:11.716Z,11.10
2018-10-03T13:26:42.907Z,11.00
2018-10-03T13:29:14.027Z,11.00
2018-10-03T13:31:45.222Z,10.90
2018-10-03T13:34:16.469Z,11.00
2018-10-03T13:36:47.643Z,10.90
2018-10-03T13:39:18.858Z,10.90
2018-10-03T13:41:58.048Z,10.80
2018-10-03T13:44:29.191Z,10.80
2018-10-03T13:47:00.232Z,10.80
2018-10-03T13:49:31.371Z,10.90
2018-10-03T13:52:02.556Z,10.90
2018-10-03T13:54:33.755Z,10.90
2018-10-03T13:57:04.895Z,11.00
2018-10-03T13:59:35.993Z,11.00
2018-10-03T14:02:07.063Z,11.20
2018-10-03T14:04:38.155Z,11.20
2018-10-03T14:07:09.237Z,11.20
2018-10-03T14:09:40.484Z,11.40
2018-10-03T14:12:11.600Z,11.60
2018-10-03T14:14:42.832Z,11.70
2018-10-03T14:17:13.956Z,11.70
2018-10-03T14:19:45.243Z,11.70
2018-10-03T14:22:16.301Z,11.80
2018-10-03T14:24:47.444Z,11.70
2018-10-03T14:27:18.570Z,11.70
2018-10-03T14:29:49.715Z,11.70
2018-10-03T14:32:20.792Z,11.80
2018-10-03T14:34:51.931Z,11.70
2018-10-03T14:37:23.055Z,11.80
2018-10-03T14:39:54.203Z,12.00
2018-10-03T14:42:25.312Z,12.10
2018-10-03T14:44:56.349Z,12.20
2018-10-03T14:47:27.379Z,12.10
2018-10-03T14:49:58.414Z,12.10
2018-10-03T14:52:29.624Z,11.90
2018-10-03T14:55:00.723Z,12.10
2018-10-03T14:57:31.741Z,12.30
2018-10-03T15:00:02.753Z,12.30
2018-10-03T15:02:33.747Z,12.40
2018-10-03T15:05:04.770Z,12.60
2018-10-03T15:07:35.839Z,12.60
2018-10-03T15:10:07.095Z,12.60
2018-10-03T15:12:38.190Z,12.40
2018-10-03T15:15:09.472Z,12.30
2018-10-03T15:17:40.627Z,12.20
2018-10-03T15:20:11.699Z,12.30
2018-10-03T15:22:42.771Z,12.20
2018-10-03T15:25:13.795Z,12.20
2018-10-03T15:27:44.968Z,12.30
2018-10-03T15:30:16.023Z,12.40
2018-10-03T15:32:47.294Z,12.40
2018-10-03T15:35:18.562Z,12.20
2018-10-03T15:37:49.714Z,12.30
2018-10-03T15:40:20.989Z,12.40
2018-10-03T15:42:52.452Z,12.50
2018-10-03T15:45:23.492Z,12.60
2018-10-03T15:47:54.607Z,12.50
2018-10-03T15:50:25.603Z,12.60
2018-10-03T15:52:56.699Z,12.50
2018-10-03T15:55:27.784Z,12.60
2018-10-03T15:57:59.104Z,12.50
2018-10-03T16:00:30.447Z,12.40
2018-10-03T16:03:01.504Z,12.40
2018-10-03T16:05:32.602Z,12.40
2018-10-03T16:08:03.720Z,12.40
2018-10-03T16:10:34.816Z,12.30
2018-10-03T16:13:05.928Z,12.40
2018-10-03T16:15:37.164Z,12.50
2018-10-03T16:18:08.583Z,12.50
2018-10-03T16:20:39.723Z,12.50
2018-10-03T16:23:10.743Z,12.40
2018-10-03T16:25:41.781Z,12.40
2018-10-03T16:28:12.892Z,12.40
2018-10-03T16:30:43.925Z,12.50
2018-10-03T16:33:15.018Z,12.50
2018-10-03T16:35:46.069Z,12.60
2018-10-03T16:38:17.138Z,12.60
2018-10-03T16:40:48.267Z,12.60
2018-10-03T16:43:19.416Z,12.60
2018-10-03T16:45:50.885Z,12.60
2018-10-03T16:48:21.935Z,12.60
2018-10-03T16:50:53.029Z,12.60
2018-10-03T16:53:24.159Z,12.60
2018-10-03T16:55:55.399Z,12.70
2018-10-03T16:58:26.500Z,12.70
2018-10-03T17:00:57.990Z,12.60
2018-10-03T17:03:29.087Z,12.70
2018-10-03T17:06:00.123Z,12.70
2018-10-03T17:08:31.296Z,12.70
2018-10-03T17:11:02.298Z,12.70
2018-10-03T17:13:33.350Z,12.80
2018-10-03T17:16:04.376Z,12.90
2018-10-03T17:18:35.427Z,12.90
2018-10-03T17:21:06.568Z,12.90
2018-10-03T17:23:37.716Z,12.90
2018-10-03T17:26:09.103Z,12.80
2018-10-03T17:28:40.371Z,12.70
2018-10-03T17:31:11.500Z,12.70
2018-10-03T17:33:42.668Z,12.70
2018-10-03T17:36:13.735Z,12.70
2018-10-03T17:38:44.965Z,12.70
2018-10-03T17:41:16.806Z,12.80
2018-10-03T17:43:47.903Z,12.80
2018-10-03T17:46:23.495Z,12.70
2018-10-03T17:48:54.573Z,12.70
2018-10-03T17:51:25.825Z,12.70
2018-10-03T17:53:57.176Z,12.70
2018-10-03T17:56:28.580Z,12.80
2018-10-03T17:59:00.026Z,12.80
2018-10-03T18:01:32.830Z,12.80
2018-10-03T18:04:04.714Z,12.80
2018-10-03T18:06:35.900Z,12.80
2018-10-03T18:09:09.693Z,12.80
2018-10-03T18:11:41.335Z,12.80
2018-10-03T18:14:12.490Z,12.80
2018-10-03T18:16:43.725Z,12.70
2018-10-03T18:19:14.871Z,12.60
2018-10-03T18:21:46.152Z,12.60
2018-10-03T18:24:17.363Z,12.60
2018-10-03T18:26:48.571Z,12.60
2018-10-03T18:29:19.702Z,12.60
2018-10-03T18:31:50.802Z,12.60
2018-10-03T18:34:21.996Z,12.60
2018-10-03T18:36:53.062Z,12.60
2018-10-03T18:39:24.197Z,12.60
2018-10-03T18:41:55.427Z,12.60
2018-10-03T18:44:26.455Z,12.50
2018-10-03T18:46:57.527Z,12.50
2018-10-03T18:49:28.697Z,12.40
2018-10-03T18:51:59.911Z,12.50
2018-10-03T18:54:30.911Z,12.50
2018-10-03T18:57:02.096Z,12.60
2018-10-03T18:59:33.435Z,12.60
2018-10-03T19:02:04.443Z,12.70
2018-10-03T19:04:35.585Z,12.80
2018-10-03T19:07:06.801Z,12.90
2018-10-03T19:09:37.990Z,12.90
2018-10-03T19:12:09.199Z,12.80
2018-10-03T19:14:40.391Z,12.80
2018-10-03T19:17:11.419Z,12.90
2018-10-03T19:19:42.611Z,12.80
2018-10-03T19:22:13.770Z,12.80
2018-10-03T19:24:44.996Z,12.90
2018-10-03T19:27:16.241Z,13.00
2018-10-03T19:29:47.363Z,13.00
2018-10-03T19:32:18.440Z,13.10
2018-10-03T19:34:49.553Z,13.10
2018-10-03T19:37:20.575Z,13.10
2018-10-03T19:39:51.659Z,13.00
2018-10-03T19:42:22.845Z,12.90
2018-10-03T19:44:54.229Z,12.90
2018-10-03T19:47:25.282Z,13.00
2018-10-03T19:49:56.420Z,13.00
2018-10-03T19:52:27.558Z,13.00
2018-10-03T19:54:58.551Z,13.00
2018-10-03T19:57:29.520Z,13.20
2018-10-03T20:00:00.643Z,13.30
2018-10-03T20:02:31.971Z,13.30
2018-10-03T20:05:03.021Z,13.20
2018-10-03T20:07:34.250Z,13.20
2018-10-03T20:12:31.480Z,13.00
2018-10-03T20:15:02.932Z,13.00
2018-10-03T20:17:34.122Z,12.90
2018-10-03T20:22:31.000Z,12.70
2018-10-03T20:25:02.063Z,12.60
2018-10-03T20:27:33.595Z,12.70
2018-10-03T20:32:30.462Z,12.60
2018-10-03T20:35:01.488Z,12.60
2018-10-03T20:37:32.512Z,12.60
2018-10-03T20:42:29.418Z,12.60
2018-10-03T20:45:00.624Z,12.60
2018-10-03T20:47:31.857Z,12.50
2018-10-03T20:50:03.090Z,12.50
2018-10-03T20:52:34.425Z,12.50
2018-10-03T20:55:05.739Z,12.50
2018-10-03T20:57:36.955Z,12.30
2018-10-03T21:02:33.903Z,12.30
2018-10-03T21:05:05.088Z,12.30
2018-10-03T21:07:36.464Z,12.30
2018-10-03T21:12:33.238Z,12.30
2018-10-03T21:15:04.933Z,12.20
2018-10-03T21:17:36.080Z,12.20
2018-10-03T21:22:33.215Z,12.20
2018-10-03T21:25:04.313Z,12.10
2018-10-03T21:27:36.380Z,12.10
2018-10-03T21:32:33.493Z,12.10
2018-10-03T21:35:04.610Z,12.10
2018-10-03T21:42:30.660Z,12.10
2018-10-03T21:45:11.164Z,12.10
2018-10-03T21:47:42.304Z,12.10
2018-10-03T21:52:39.227Z,12.10
2018-10-03T21:55:10.427Z,12.10
2018-10-03T21:57:41.568Z,12.10
2018-10-03T22:00:12.822Z,12.10
